sensor_id;sensor_type;location;lat;lon;timestamp;P1;durP1;ratioP1;P2;durP2;ratioP2
45041;SDS011;30779;52.096;4.410;2023-02-05T00:00:06;14.27;;;7.95;;
45041;SDS011;30779;52.096;4.410;2023-02-05T00:03:07;14.13;;;6.80;;
45041;SDS011;30779;52.096;4.410;2023-02-05T00:06:08;14.27;;;7.38;;
45041;SDS011;30779;52.096;4.410;2023-02-05T00:09:09;13.60;;;7.75;;
45041;SDS011;30779;52.096;4.410;2023-02-05T00:12:10;13.45;;;7.50;;
45041;SDS011;30779;52.096;4.410;2023-02-05T00:15:11;15.27;;;7.53;;
45041;SDS011;30779;52.096;4.410;2023-02-05T00:18:12;15.23;;;7.88;;
45041;SDS011;30779;52.096;4.410;2023-02-05T00:21:14;13.55;;;7.00;;
45041;SDS011;30779;52.096;4.410;2023-02-05T00:24:15;9.88;;;5.45;;
45041;SDS011;30779;52.096;4.410;2023-02-05T00:27:16;13.40;;;6.00;;
45041;SDS011;30779;52.096;4.410;2023-02-05T00:30:17;9.75;;;5.07;;
45041;SDS011;30779;52.096;4.410;2023-02-05T00:33:18;9.63;;;4.85;;
45041;SDS011;30779;52.096;4.410;2023-02-05T00:36:21;7.68;;;4.40;;
45041;SDS011;30779;52.096;4.410;2023-02-05T00:39:22;5.47;;;3.65;;
45041;SDS011;30779;52.096;4.410;2023-02-05T00:42:23;7.97;;;3.70;;
45041;SDS011;30779;52.096;4.410;2023-02-05T00:45:24;10.02;;;4.30;;
45041;SDS011;30779;52.096;4.410;2023-02-05T00:48:30;6.10;;;3.30;;
45041;SDS011;30779;52.096;4.410;2023-02-05T00:51:31;6.90;;;3.35;;
45041;SDS011;30779;52.096;4.410;2023-02-05T00:54:33;7.70;;;3.10;;
45041;SDS011;30779;52.096;4.410;2023-02-05T00:57:34;4.88;;;2.90;;
45041;SDS011;30779;52.096;4.410;2023-02-05T01:00:35;5.45;;;2.67;;
45041;SDS011;30779;52.096;4.410;2023-02-05T01:03:36;5.68;;;3.75;;
45041;SDS011;30779;52.096;4.410;2023-02-05T01:06:37;5.43;;;2.25;;
45041;SDS011;30779;52.096;4.410;2023-02-05T01:09:38;4.75;;;2.67;;
45041;SDS011;30779;52.096;4.410;2023-02-05T01:12:39;5.70;;;2.20;;
45041;SDS011;30779;52.096;4.410;2023-02-05T01:15:40;5.50;;;2.58;;
45041;SDS011;30779;52.096;4.410;2023-02-05T01:18:41;4.25;;;2.22;;
45041;SDS011;30779;52.096;4.410;2023-02-05T01:21:42;6.13;;;2.20;;
45041;SDS011;30779;52.096;4.410;2023-02-05T01:24:43;4.60;;;2.30;;
45041;SDS011;30779;52.096;4.410;2023-02-05T01:27:44;4.85;;;2.20;;
45041;SDS011;30779;52.096;4.410;2023-02-05T01:30:46;4.82;;;2.00;;
45041;SDS011;30779;52.096;4.410;2023-02-05T01:33:47;7.28;;;2.50;;
45041;SDS011;30779;52.096;4.410;2023-02-05T01:36:48;4.55;;;2.03;;
45041;SDS011;30779;52.096;4.410;2023-02-05T01:39:49;2.63;;;1.80;;
45041;SDS011;30779;52.096;4.410;2023-02-05T01:42:50;3.35;;;1.67;;
45041;SDS011;30779;52.096;4.410;2023-02-05T01:48:55;5.13;;;1.88;;
45041;SDS011;30779;52.096;4.410;2023-02-05T01:51:58;5.72;;;1.98;;
45041;SDS011;30779;52.096;4.410;2023-02-05T01:55:02;6.13;;;1.77;;
45041;SDS011;30779;52.096;4.410;2023-02-05T02:01:14;4.00;;;1.80;;
45041;SDS011;30779;52.096;4.410;2023-02-05T02:04:19;4.05;;;1.63;;
45041;SDS011;30779;52.096;4.410;2023-02-05T02:07:21;3.17;;;1.50;;
45041;SDS011;30779;52.096;4.410;2023-02-05T02:10:23;5.85;;;1.90;;
45041;SDS011;30779;52.096;4.410;2023-02-05T02:13:25;4.43;;;1.95;;
45041;SDS011;30779;52.096;4.410;2023-02-05T02:16:27;5.57;;;1.92;;
45041;SDS011;30779;52.096;4.410;2023-02-05T02:26:08;8.10;;;3.50;;
45041;SDS011;30779;52.096;4.410;2023-02-05T02:29:16;6.60;;;2.08;;
45041;SDS011;30779;52.096;4.410;2023-02-05T02:32:23;6.78;;;2.40;;
45041;SDS011;30779;52.096;4.410;2023-02-05T02:38:42;9.38;;;2.53;;
45041;SDS011;30779;52.096;4.410;2023-02-05T02:44:55;6.13;;;2.33;;
45041;SDS011;30779;52.096;4.410;2023-02-05T02:47:57;10.48;;;2.97;;
45041;SDS011;30779;52.096;4.410;2023-02-05T02:51:00;7.20;;;2.63;;
45041;SDS011;30779;52.096;4.410;2023-02-05T02:54:03;6.90;;;3.42;;
45041;SDS011;30779;52.096;4.410;2023-02-05T02:57:06;8.27;;;3.33;;
45041;SDS011;30779;52.096;4.410;2023-02-05T03:00:09;7.63;;;3.03;;
45041;SDS011;30779;52.096;4.410;2023-02-05T03:03:12;6.78;;;3.13;;
45041;SDS011;30779;52.096;4.410;2023-02-05T03:06:15;16.85;;;4.15;;
45041;SDS011;30779;52.096;4.410;2023-02-05T03:09:20;11.10;;;4.25;;
45041;SDS011;30779;52.096;4.410;2023-02-05T03:12:22;8.75;;;3.70;;
45041;SDS011;30779;52.096;4.410;2023-02-05T03:15:24;7.13;;;3.75;;
45041;SDS011;30779;52.096;4.410;2023-02-05T03:18:25;15.75;;;4.85;;
45041;SDS011;30779;52.096;4.410;2023-02-05T03:21:30;7.80;;;4.35;;
45041;SDS011;30779;52.096;4.410;2023-02-05T03:24:33;12.65;;;5.55;;
45041;SDS011;30779;52.096;4.410;2023-02-05T03:27:35;9.68;;;5.68;;
45041;SDS011;30779;52.096;4.410;2023-02-05T03:30:58;18.20;;;8.10;;
45041;SDS011;30779;52.096;4.410;2023-02-05T03:37:23;9.23;;;5.18;;
45041;SDS011;30779;52.096;4.410;2023-02-05T03:43:49;16.63;;;5.72;;
45041;SDS011;30779;52.096;4.410;2023-02-05T03:47:15;11.43;;;6.10;;
45041;SDS011;30779;52.096;4.410;2023-02-05T03:50:23;8.68;;;5.05;;
45041;SDS011;30779;52.096;4.410;2023-02-05T03:53:30;14.30;;;6.93;;
45041;SDS011;30779;52.096;4.410;2023-02-05T03:56:36;13.38;;;6.05;;
45041;SDS011;30779;52.096;4.410;2023-02-05T03:59:39;9.98;;;5.88;;
45041;SDS011;30779;52.096;4.410;2023-02-05T04:02:41;9.63;;;5.10;;
45041;SDS011;30779;52.096;4.410;2023-02-05T04:05:42;7.07;;;4.50;;
45041;SDS011;30779;52.096;4.410;2023-02-05T04:08:43;9.73;;;5.60;;
45041;SDS011;30779;52.096;4.410;2023-02-05T04:11:44;15.43;;;7.15;;
45041;SDS011;30779;52.096;4.410;2023-02-05T04:14:45;8.57;;;5.07;;
45041;SDS011;30779;52.096;4.410;2023-02-05T04:17:46;9.77;;;4.82;;
45041;SDS011;30779;52.096;4.410;2023-02-05T04:20:47;5.45;;;3.55;;
45041;SDS011;30779;52.096;4.410;2023-02-05T04:23:48;10.45;;;4.53;;
45041;SDS011;30779;52.096;4.410;2023-02-05T04:26:50;7.55;;;2.38;;
45041;SDS011;30779;52.096;4.410;2023-02-05T04:29:51;6.57;;;2.28;;
45041;SDS011;30779;52.096;4.410;2023-02-05T04:32:52;9.90;;;1.80;;
45041;SDS011;30779;52.096;4.410;2023-02-05T04:35:56;8.00;;;1.60;;
45041;SDS011;30779;52.096;4.410;2023-02-05T04:38:57;5.82;;;1.55;;
45041;SDS011;30779;52.096;4.410;2023-02-05T04:41:58;9.48;;;2.78;;
45041;SDS011;30779;52.096;4.410;2023-02-05T04:45:00;10.10;;;2.28;;
45041;SDS011;30779;52.096;4.410;2023-02-05T04:48:01;12.00;;;1.88;;
45041;SDS011;30779;52.096;4.410;2023-02-05T04:51:06;8.13;;;1.95;;
45041;SDS011;30779;52.096;4.410;2023-02-05T04:54:07;9.55;;;2.65;;
45041;SDS011;30779;52.096;4.410;2023-02-05T04:57:08;10.70;;;2.20;;
45041;SDS011;30779;52.096;4.410;2023-02-05T05:00:09;14.60;;;2.72;;
45041;SDS011;30779;52.096;4.410;2023-02-05T05:03:10;11.60;;;2.20;;
45041;SDS011;30779;52.096;4.410;2023-02-05T05:06:12;9.23;;;2.28;;
45041;SDS011;30779;52.096;4.410;2023-02-05T05:09:13;10.30;;;3.05;;
45041;SDS011;30779;52.096;4.410;2023-02-05T05:12:14;9.88;;;2.90;;
45041;SDS011;30779;52.096;4.410;2023-02-05T05:15:15;9.30;;;1.95;;
45041;SDS011;30779;52.096;4.410;2023-02-05T05:18:16;13.32;;;2.13;;
45041;SDS011;30779;52.096;4.410;2023-02-05T05:21:17;5.63;;;1.35;;
45041;SDS011;30779;52.096;4.410;2023-02-05T05:24:18;4.50;;;1.50;;
45041;SDS011;30779;52.096;4.410;2023-02-05T05:27:19;8.48;;;2.95;;
45041;SDS011;30779;52.096;4.410;2023-02-05T05:30:22;12.25;;;2.10;;
45041;SDS011;30779;52.096;4.410;2023-02-05T05:33:23;9.48;;;1.52;;
45041;SDS011;30779;52.096;4.410;2023-02-05T05:36:24;10.50;;;1.98;;
45041;SDS011;30779;52.096;4.410;2023-02-05T05:39:25;8.18;;;2.00;;
45041;SDS011;30779;52.096;4.410;2023-02-05T05:42:44;10.05;;;2.58;;
45041;SDS011;30779;52.096;4.410;2023-02-05T05:46:04;13.07;;;3.45;;
45041;SDS011;30779;52.096;4.410;2023-02-05T05:49:05;10.80;;;2.67;;
45041;SDS011;30779;52.096;4.410;2023-02-05T05:52:06;11.38;;;2.92;;
45041;SDS011;30779;52.096;4.410;2023-02-05T05:55:07;12.05;;;3.13;;
45041;SDS011;30779;52.096;4.410;2023-02-05T05:58:09;16.58;;;3.13;;
45041;SDS011;30779;52.096;4.410;2023-02-05T06:01:11;9.38;;;2.10;;
45041;SDS011;30779;52.096;4.410;2023-02-05T06:04:12;12.77;;;2.80;;
45041;SDS011;30779;52.096;4.410;2023-02-05T06:07:13;9.45;;;2.80;;
45041;SDS011;30779;52.096;4.410;2023-02-05T06:10:15;10.77;;;2.72;;
45041;SDS011;30779;52.096;4.410;2023-02-05T06:13:16;9.77;;;2.40;;
45041;SDS011;30779;52.096;4.410;2023-02-05T06:16:17;10.27;;;2.58;;
45041;SDS011;30779;52.096;4.410;2023-02-05T06:19:18;11.05;;;2.92;;
45041;SDS011;30779;52.096;4.410;2023-02-05T06:22:19;12.48;;;2.47;;
45041;SDS011;30779;52.096;4.410;2023-02-05T06:25:20;9.32;;;3.30;;
45041;SDS011;30779;52.096;4.410;2023-02-05T06:28:21;18.13;;;3.30;;
45041;SDS011;30779;52.096;4.410;2023-02-05T06:31:22;10.18;;;3.25;;
45041;SDS011;30779;52.096;4.410;2023-02-05T06:34:23;17.42;;;3.42;;
45041;SDS011;30779;52.096;4.410;2023-02-05T06:37:24;13.20;;;3.15;;
45041;SDS011;30779;52.096;4.410;2023-02-05T06:40:28;13.02;;;3.38;;
45041;SDS011;30779;52.096;4.410;2023-02-05T06:43:29;11.73;;;3.05;;
45041;SDS011;30779;52.096;4.410;2023-02-05T06:46:30;13.32;;;3.92;;
45041;SDS011;30779;52.096;4.410;2023-02-05T06:49:31;15.82;;;3.83;;
45041;SDS011;30779;52.096;4.410;2023-02-05T06:52:32;10.77;;;3.30;;
45041;SDS011;30779;52.096;4.410;2023-02-05T06:55:33;15.25;;;4.13;;
45041;SDS011;30779;52.096;4.410;2023-02-05T06:58:34;9.77;;;2.50;;
45041;SDS011;30779;52.096;4.410;2023-02-05T07:01:35;12.40;;;2.22;;
45041;SDS011;30779;52.096;4.410;2023-02-05T07:04:36;10.27;;;3.15;;
45041;SDS011;30779;52.096;4.410;2023-02-05T07:07:37;13.95;;;2.80;;
45041;SDS011;30779;52.096;4.410;2023-02-05T07:10:38;16.20;;;3.53;;
45041;SDS011;30779;52.096;4.410;2023-02-05T07:13:39;19.98;;;3.75;;
45041;SDS011;30779;52.096;4.410;2023-02-05T07:16:40;14.85;;;3.10;;
45041;SDS011;30779;52.096;4.410;2023-02-05T07:19:42;11.38;;;3.20;;
45041;SDS011;30779;52.096;4.410;2023-02-05T07:22:43;18.73;;;5.28;;
45041;SDS011;30779;52.096;4.410;2023-02-05T07:25:46;12.88;;;2.58;;
45041;SDS011;30779;52.096;4.410;2023-02-05T07:28:47;13.23;;;2.42;;
45041;SDS011;30779;52.096;4.410;2023-02-05T07:31:51;9.38;;;2.45;;
45041;SDS011;30779;52.096;4.410;2023-02-05T07:34:52;15.00;;;2.95;;
45041;SDS011;30779;52.096;4.410;2023-02-05T07:37:53;17.65;;;3.20;;
45041;SDS011;30779;52.096;4.410;2023-02-05T07:40:54;19.98;;;3.70;;
45041;SDS011;30779;52.096;4.410;2023-02-05T07:43:55;13.63;;;3.25;;
45041;SDS011;30779;52.096;4.410;2023-02-05T07:46:56;11.88;;;2.97;;
45041;SDS011;30779;52.096;4.410;2023-02-05T07:49:57;13.82;;;3.95;;
45041;SDS011;30779;52.096;4.410;2023-02-05T07:52:58;12.35;;;3.63;;
45041;SDS011;30779;52.096;4.410;2023-02-05T07:56:03;20.15;;;5.70;;
45041;SDS011;30779;52.096;4.410;2023-02-05T07:59:04;18.95;;;3.75;;
45041;SDS011;30779;52.096;4.410;2023-02-05T08:02:06;16.20;;;3.45;;
45041;SDS011;30779;52.096;4.410;2023-02-05T08:05:07;23.35;;;4.75;;
45041;SDS011;30779;52.096;4.410;2023-02-05T08:08:08;20.15;;;5.10;;
45041;SDS011;30779;52.096;4.410;2023-02-05T08:11:12;19.13;;;3.88;;
45041;SDS011;30779;52.096;4.410;2023-02-05T08:14:13;18.70;;;4.22;;
45041;SDS011;30779;52.096;4.410;2023-02-05T08:17:14;37.42;;;6.18;;
45041;SDS011;30779;52.096;4.410;2023-02-05T08:20:15;22.00;;;4.18;;
45041;SDS011;30779;52.096;4.410;2023-02-05T08:23:16;18.80;;;4.50;;
45041;SDS011;30779;52.096;4.410;2023-02-05T08:26:18;19.33;;;4.95;;
45041;SDS011;30779;52.096;4.410;2023-02-05T08:29:19;24.77;;;4.55;;
45041;SDS011;30779;52.096;4.410;2023-02-05T08:32:20;23.48;;;4.60;;
45041;SDS011;30779;52.096;4.410;2023-02-05T08:35:21;26.73;;;7.15;;
45041;SDS011;30779;52.096;4.410;2023-02-05T08:38:22;20.48;;;4.57;;
45041;SDS011;30779;52.096;4.410;2023-02-05T08:41:23;20.35;;;5.03;;
45041;SDS011;30779;52.096;4.410;2023-02-05T08:44:24;22.10;;;5.32;;
45041;SDS011;30779;52.096;4.410;2023-02-05T08:47:25;14.15;;;3.75;;
45041;SDS011;30779;52.096;4.410;2023-02-05T08:50:26;32.30;;;6.13;;
45041;SDS011;30779;52.096;4.410;2023-02-05T08:53:28;24.00;;;4.75;;
45041;SDS011;30779;52.096;4.410;2023-02-05T08:56:30;18.33;;;5.13;;
45041;SDS011;30779;52.096;4.410;2023-02-05T08:59:31;23.52;;;4.65;;
45041;SDS011;30779;52.096;4.410;2023-02-05T09:02:33;17.77;;;4.38;;
45041;SDS011;30779;52.096;4.410;2023-02-05T09:05:34;25.17;;;5.72;;
45041;SDS011;30779;52.096;4.410;2023-02-05T09:08:35;16.35;;;4.03;;
45041;SDS011;30779;52.096;4.410;2023-02-05T09:11:37;27.35;;;5.75;;
45041;SDS011;30779;52.096;4.410;2023-02-05T09:14:38;18.70;;;4.90;;
45041;SDS011;30779;52.096;4.410;2023-02-05T09:17:39;27.83;;;5.50;;
45041;SDS011;30779;52.096;4.410;2023-02-05T09:20:41;14.65;;;3.67;;
45041;SDS011;30779;52.096;4.410;2023-02-05T09:23:43;26.00;;;4.93;;
45041;SDS011;30779;52.096;4.410;2023-02-05T09:26:44;15.15;;;4.80;;
45041;SDS011;30779;52.096;4.410;2023-02-05T09:29:45;18.58;;;4.50;;
45041;SDS011;30779;52.096;4.410;2023-02-05T09:32:46;26.70;;;5.65;;
45041;SDS011;30779;52.096;4.410;2023-02-05T09:35:47;21.65;;;5.28;;
45041;SDS011;30779;52.096;4.410;2023-02-05T09:38:48;20.25;;;4.65;;
45041;SDS011;30779;52.096;4.410;2023-02-05T09:41:54;20.70;;;5.35;;
45041;SDS011;30779;52.096;4.410;2023-02-05T09:45:10;20.00;;;4.75;;
45041;SDS011;30779;52.096;4.410;2023-02-05T09:51:36;20.27;;;4.78;;
45041;SDS011;30779;52.096;4.410;2023-02-05T09:54:39;18.88;;;5.68;;
45041;SDS011;30779;52.096;4.410;2023-02-05T09:57:41;17.25;;;5.07;;
45041;SDS011;30779;52.096;4.410;2023-02-05T10:00:47;17.33;;;3.83;;
45041;SDS011;30779;52.096;4.410;2023-02-05T10:03:58;22.05;;;5.90;;
45041;SDS011;30779;52.096;4.410;2023-02-05T10:13:24;27.13;;;4.53;;
45041;SDS011;30779;52.096;4.410;2023-02-05T10:16:33;26.58;;;6.32;;
45041;SDS011;30779;52.096;4.410;2023-02-05T10:32:21;18.60;;;4.03;;
45041;SDS011;30779;52.096;4.410;2023-02-05T10:35:24;15.93;;;4.25;;
45041;SDS011;30779;52.096;4.410;2023-02-05T10:38:26;17.20;;;4.28;;
45041;SDS011;30779;52.096;4.410;2023-02-05T10:44:52;18.10;;;5.60;;
45041;SDS011;30779;52.096;4.410;2023-02-05T10:51:03;17.13;;;3.22;;
45041;SDS011;30779;52.096;4.410;2023-02-05T10:54:06;22.15;;;4.63;;
45041;SDS011;30779;52.096;4.410;2023-02-05T10:57:17;15.77;;;4.72;;
45041;SDS011;30779;52.096;4.410;2023-02-05T11:00:20;21.95;;;4.68;;
45041;SDS011;30779;52.096;4.410;2023-02-05T11:03:21;20.48;;;5.35;;
45041;SDS011;30779;52.096;4.410;2023-02-05T11:06:24;16.92;;;3.63;;
45041;SDS011;30779;52.096;4.410;2023-02-05T11:09:27;22.23;;;4.30;;
45041;SDS011;30779;52.096;4.410;2023-02-05T11:12:28;19.00;;;4.07;;
45041;SDS011;30779;52.096;4.410;2023-02-05T11:15:30;23.13;;;5.63;;
45041;SDS011;30779;52.096;4.410;2023-02-05T11:18:39;18.65;;;5.25;;
45041;SDS011;30779;52.096;4.410;2023-02-05T11:21:47;29.23;;;6.32;;
45041;SDS011;30779;52.096;4.410;2023-02-05T11:24:48;19.13;;;5.38;;
45041;SDS011;30779;52.096;4.410;2023-02-05T11:30:53;17.90;;;4.82;;
45041;SDS011;30779;52.096;4.410;2023-02-05T11:37:09;29.48;;;5.45;;
45041;SDS011;30779;52.096;4.410;2023-02-05T11:40:17;26.48;;;4.53;;
45041;SDS011;30779;52.096;4.410;2023-02-05T11:46:21;22.52;;;4.20;;
45041;SDS011;30779;52.096;4.410;2023-02-05T11:49:33;24.00;;;5.67;;
45041;SDS011;30779;52.096;4.410;2023-02-05T11:52:35;25.92;;;6.00;;
45041;SDS011;30779;52.096;4.410;2023-02-05T11:55:37;21.40;;;5.78;;
45041;SDS011;30779;52.096;4.410;2023-02-05T11:58:38;36.85;;;7.03;;
45041;SDS011;30779;52.096;4.410;2023-02-05T12:01:39;19.45;;;4.78;;
45041;SDS011;30779;52.096;4.410;2023-02-05T12:04:46;18.10;;;4.60;;
45041;SDS011;30779;52.096;4.410;2023-02-05T12:23:21;21.00;;;5.38;;
45041;SDS011;30779;52.096;4.410;2023-02-05T12:26:38;20.25;;;6.32;;
45041;SDS011;30779;52.096;4.410;2023-02-05T12:30:00;19.55;;;5.63;;
45041;SDS011;30779;52.096;4.410;2023-02-05T12:36:26;15.65;;;4.20;;
45041;SDS011;30779;52.096;4.410;2023-02-05T12:39:38;21.63;;;4.07;;
45041;SDS011;30779;52.096;4.410;2023-02-05T12:45:54;16.55;;;4.72;;
45041;SDS011;30779;52.096;4.410;2023-02-05T12:55:26;18.88;;;3.70;;
45041;SDS011;30779;52.096;4.410;2023-02-05T12:58:34;17.20;;;4.82;;
45041;SDS011;30779;52.096;4.410;2023-02-05T13:01:39;19.90;;;4.47;;
45041;SDS011;30779;52.096;4.410;2023-02-05T13:04:43;19.33;;;4.32;;
45041;SDS011;30779;52.096;4.410;2023-02-05T13:12:07;37.67;;;7.07;;
45041;SDS011;30779;52.096;4.410;2023-02-05T13:17:48;15.30;;;4.15;;
45041;SDS011;30779;52.096;4.410;2023-02-05T13:20:58;21.10;;;4.43;;
45041;SDS011;30779;52.096;4.410;2023-02-05T13:27:42;15.50;;;3.83;;
45041;SDS011;30779;52.096;4.410;2023-02-05T13:31:03;23.08;;;4.38;;
45041;SDS011;30779;52.096;4.410;2023-02-05T13:34:06;14.80;;;3.40;;
45041;SDS011;30779;52.096;4.410;2023-02-05T13:40:20;20.80;;;4.68;;
45041;SDS011;30779;52.096;4.410;2023-02-05T13:43:30;15.10;;;4.55;;
45041;SDS011;30779;52.096;4.410;2023-02-05T13:46:44;18.00;;;4.07;;
45041;SDS011;30779;52.096;4.410;2023-02-05T13:59:19;15.88;;;3.97;;
45041;SDS011;30779;52.096;4.410;2023-02-05T14:02:28;22.67;;;6.47;;
45041;SDS011;30779;52.096;4.410;2023-02-05T14:05:32;30.52;;;6.70;;
45041;SDS011;30779;52.096;4.410;2023-02-05T14:08:34;19.23;;;4.65;;
45041;SDS011;30779;52.096;4.410;2023-02-05T14:14:44;25.90;;;4.75;;
45041;SDS011;30779;52.096;4.410;2023-02-05T14:18:05;27.42;;;6.65;;
45041;SDS011;30779;52.096;4.410;2023-02-05T14:27:45;24.55;;;6.45;;
45041;SDS011;30779;52.096;4.410;2023-02-05T14:30:48;17.23;;;4.15;;
45041;SDS011;30779;52.096;4.410;2023-02-05T14:33:50;14.00;;;5.65;;
45041;SDS011;30779;52.096;4.410;2023-02-05T14:36:51;23.05;;;6.80;;
45041;SDS011;30779;52.096;4.410;2023-02-05T14:39:52;17.65;;;3.95;;
45041;SDS011;30779;52.096;4.410;2023-02-05T14:42:54;30.17;;;4.78;;
45041;SDS011;30779;52.096;4.410;2023-02-05T14:45:56;21.33;;;5.75;;
45041;SDS011;30779;52.096;4.410;2023-02-05T14:49:00;27.27;;;6.00;;
45041;SDS011;30779;52.096;4.410;2023-02-05T14:52:06;20.87;;;4.70;;
45041;SDS011;30779;52.096;4.410;2023-02-05T14:58:23;23.23;;;5.30;;
45041;SDS011;30779;52.096;4.410;2023-02-05T15:04:37;16.52;;;3.78;;
45041;SDS011;30779;52.096;4.410;2023-02-05T15:07:41;17.85;;;4.25;;
45041;SDS011;30779;52.096;4.410;2023-02-05T15:10:47;16.77;;;3.53;;
45041;SDS011;30779;52.096;4.410;2023-02-05T15:20:20;18.98;;;4.28;;
45041;SDS011;30779;52.096;4.410;2023-02-05T15:23:31;22.30;;;4.97;;
45041;SDS011;30779;52.096;4.410;2023-02-05T15:26:54;21.30;;;4.72;;
45041;SDS011;30779;52.096;4.410;2023-02-05T15:29:56;23.48;;;4.47;;
45041;SDS011;30779;52.096;4.410;2023-02-05T15:33:00;16.80;;;4.18;;
45041;SDS011;30779;52.096;4.410;2023-02-05T15:39:47;24.20;;;5.53;;
45041;SDS011;30779;52.096;4.410;2023-02-05T15:42:29;18.92;;;3.72;;
45041;SDS011;30779;52.096;4.410;2023-02-05T15:45:32;25.60;;;5.35;;
45041;SDS011;30779;52.096;4.410;2023-02-05T15:48:34;23.25;;;5.07;;
45041;SDS011;30779;52.096;4.410;2023-02-05T15:51:36;24.52;;;5.13;;
45041;SDS011;30779;52.096;4.410;2023-02-05T15:54:37;30.15;;;5.75;;
45041;SDS011;30779;52.096;4.410;2023-02-05T15:57:39;29.48;;;5.10;;
45041;SDS011;30779;52.096;4.410;2023-02-05T16:00:40;20.95;;;3.60;;
45041;SDS011;30779;52.096;4.410;2023-02-05T16:03:45;22.83;;;5.82;;
45041;SDS011;30779;52.096;4.410;2023-02-05T16:06:46;20.17;;;4.60;;
45041;SDS011;30779;52.096;4.410;2023-02-05T16:09:48;20.65;;;3.85;;
45041;SDS011;30779;52.096;4.410;2023-02-05T16:16:10;32.40;;;5.55;;
45041;SDS011;30779;52.096;4.410;2023-02-05T16:19:18;25.85;;;5.55;;
45041;SDS011;30779;52.096;4.410;2023-02-05T16:25:28;18.52;;;4.65;;
45041;SDS011;30779;52.096;4.410;2023-02-05T16:31:33;24.95;;;4.80;;
45041;SDS011;30779;52.096;4.410;2023-02-05T16:34:36;26.88;;;6.53;;
45041;SDS011;30779;52.096;4.410;2023-02-05T16:37:39;25.33;;;5.97;;
45041;SDS011;30779;52.096;4.410;2023-02-05T16:40:43;20.67;;;4.82;;
45041;SDS011;30779;52.096;4.410;2023-02-05T16:43:47;22.23;;;4.88;;
45041;SDS011;30779;52.096;4.410;2023-02-05T16:47:03;25.23;;;5.80;;
45041;SDS011;30779;52.096;4.410;2023-02-05T16:53:26;19.10;;;5.32;;
45041;SDS011;30779;52.096;4.410;2023-02-05T16:56:29;29.17;;;7.18;;
45041;SDS011;30779;52.096;4.410;2023-02-05T16:59:46;33.63;;;5.73;;
45041;SDS011;30779;52.096;4.410;2023-02-05T17:02:51;23.27;;;5.00;;
45041;SDS011;30779;52.096;4.410;2023-02-05T17:05:53;20.70;;;5.10;;
45041;SDS011;30779;52.096;4.410;2023-02-05T17:08:54;24.17;;;6.05;;
45041;SDS011;30779;52.096;4.410;2023-02-05T17:12:19;28.70;;;7.32;;
45041;SDS011;30779;52.096;4.410;2023-02-05T17:21:20;27.00;;;6.93;;
45041;SDS011;30779;52.096;4.410;2023-02-05T17:24:21;25.02;;;6.32;;
45041;SDS011;30779;52.096;4.410;2023-02-05T17:27:27;31.98;;;5.75;;
45041;SDS011;30779;52.096;4.410;2023-02-05T17:30:29;26.33;;;5.32;;
45041;SDS011;30779;52.096;4.410;2023-02-05T17:33:30;29.60;;;6.75;;
45041;SDS011;30779;52.096;4.410;2023-02-05T17:36:31;23.83;;;4.65;;
45041;SDS011;30779;52.096;4.410;2023-02-05T17:39:32;30.98;;;5.45;;
45041;SDS011;30779;52.096;4.410;2023-02-05T17:42:33;27.38;;;6.28;;
45041;SDS011;30779;52.096;4.410;2023-02-05T17:45:36;26.77;;;4.68;;
45041;SDS011;30779;52.096;4.410;2023-02-05T17:48:38;25.20;;;6.07;;
45041;SDS011;30779;52.096;4.410;2023-02-05T17:51:39;26.40;;;4.78;;
45041;SDS011;30779;52.096;4.410;2023-02-05T17:54:42;25.83;;;6.43;;
45041;SDS011;30779;52.096;4.410;2023-02-05T17:57:44;23.50;;;4.78;;
45041;SDS011;30779;52.096;4.410;2023-02-05T18:00:45;26.63;;;5.60;;
45041;SDS011;30779;52.096;4.410;2023-02-05T18:03:47;24.38;;;4.95;;
45041;SDS011;30779;52.096;4.410;2023-02-05T18:06:48;27.58;;;5.65;;
45041;SDS011;30779;52.096;4.410;2023-02-05T18:09:49;32.90;;;9.07;;
45041;SDS011;30779;52.096;4.410;2023-02-05T18:12:50;23.92;;;6.20;;
45041;SDS011;30779;52.096;4.410;2023-02-05T18:15:52;25.13;;;7.05;;
45041;SDS011;30779;52.096;4.410;2023-02-05T18:18:57;32.00;;;6.63;;
45041;SDS011;30779;52.096;4.410;2023-02-05T18:21:58;26.75;;;5.55;;
45041;SDS011;30779;52.096;4.410;2023-02-05T18:25:00;41.78;;;6.88;;
45041;SDS011;30779;52.096;4.410;2023-02-05T18:28:01;21.55;;;6.05;;
45041;SDS011;30779;52.096;4.410;2023-02-05T18:31:03;24.35;;;5.85;;
45041;SDS011;30779;52.096;4.410;2023-02-05T18:34:04;31.15;;;8.60;;
45041;SDS011;30779;52.096;4.410;2023-02-05T18:37:06;25.63;;;6.03;;
45041;SDS011;30779;52.096;4.410;2023-02-05T18:40:07;23.45;;;5.53;;
45041;SDS011;30779;52.096;4.410;2023-02-05T18:43:09;24.10;;;6.65;;
45041;SDS011;30779;52.096;4.410;2023-02-05T18:46:11;25.48;;;6.93;;
45041;SDS011;30779;52.096;4.410;2023-02-05T18:49:13;25.85;;;6.28;;
45041;SDS011;30779;52.096;4.410;2023-02-05T18:52:14;28.08;;;6.85;;
45041;SDS011;30779;52.096;4.410;2023-02-05T18:55:17;29.45;;;7.82;;
45041;SDS011;30779;52.096;4.410;2023-02-05T18:58:18;27.30;;;7.07;;
45041;SDS011;30779;52.096;4.410;2023-02-05T19:01:19;24.58;;;6.95;;
45041;SDS011;30779;52.096;4.410;2023-02-05T19:04:20;26.45;;;6.20;;
45041;SDS011;30779;52.096;4.410;2023-02-05T19:07:21;25.83;;;5.63;;
45041;SDS011;30779;52.096;4.410;2023-02-05T19:10:23;25.23;;;5.97;;
45041;SDS011;30779;52.096;4.410;2023-02-05T19:13:24;29.25;;;6.45;;
45041;SDS011;30779;52.096;4.410;2023-02-05T19:16:26;22.00;;;6.25;;
45041;SDS011;30779;52.096;4.410;2023-02-05T19:19:28;24.98;;;6.88;;
45041;SDS011;30779;52.096;4.410;2023-02-05T19:22:30;25.63;;;5.78;;
45041;SDS011;30779;52.096;4.410;2023-02-05T19:25:31;25.40;;;6.47;;
45041;SDS011;30779;52.096;4.410;2023-02-05T19:28:32;19.38;;;5.32;;
45041;SDS011;30779;52.096;4.410;2023-02-05T19:31:34;20.95;;;5.72;;
45041;SDS011;30779;52.096;4.410;2023-02-05T19:34:35;27.88;;;6.10;;
45041;SDS011;30779;52.096;4.410;2023-02-05T19:37:39;27.98;;;6.20;;
45041;SDS011;30779;52.096;4.410;2023-02-05T19:40:40;29.70;;;6.85;;
45041;SDS011;30779;52.096;4.410;2023-02-05T19:43:41;26.35;;;6.10;;
45041;SDS011;30779;52.096;4.410;2023-02-05T19:46:49;34.13;;;7.38;;
45041;SDS011;30779;52.096;4.410;2023-02-05T19:49:50;32.15;;;7.40;;
45041;SDS011;30779;52.096;4.410;2023-02-05T19:52:53;30.75;;;5.20;;
45041;SDS011;30779;52.096;4.410;2023-02-05T19:55:54;33.58;;;7.72;;
45041;SDS011;30779;52.096;4.410;2023-02-05T19:58:55;24.20;;;6.05;;
45041;SDS011;30779;52.096;4.410;2023-02-05T20:01:56;27.15;;;5.78;;
45041;SDS011;30779;52.096;4.410;2023-02-05T20:04:57;27.23;;;6.80;;
45041;SDS011;30779;52.096;4.410;2023-02-05T20:07:58;27.05;;;7.30;;
45041;SDS011;30779;52.096;4.410;2023-02-05T20:10:59;36.38;;;7.22;;
45041;SDS011;30779;52.096;4.410;2023-02-05T20:14:01;26.05;;;5.63;;
45041;SDS011;30779;52.096;4.410;2023-02-05T20:17:02;21.85;;;5.28;;
45041;SDS011;30779;52.096;4.410;2023-02-05T20:20:03;24.25;;;5.55;;
45041;SDS011;30779;52.096;4.410;2023-02-05T20:23:04;20.10;;;5.82;;
45041;SDS011;30779;52.096;4.410;2023-02-05T20:26:06;37.17;;;7.05;;
45041;SDS011;30779;52.096;4.410;2023-02-05T20:29:08;23.15;;;5.38;;
45041;SDS011;30779;52.096;4.410;2023-02-05T20:32:28;36.42;;;6.53;;
45041;SDS011;30779;52.096;4.410;2023-02-05T20:35:29;37.90;;;7.35;;
45041;SDS011;30779;52.096;4.410;2023-02-05T20:38:30;30.40;;;6.05;;
45041;SDS011;30779;52.096;4.410;2023-02-05T20:41:31;30.15;;;6.35;;
45041;SDS011;30779;52.096;4.410;2023-02-05T20:44:33;23.80;;;6.35;;
45041;SDS011;30779;52.096;4.410;2023-02-05T20:47:35;30.88;;;7.78;;
45041;SDS011;30779;52.096;4.410;2023-02-05T20:50:36;25.30;;;5.40;;